Terminal Aerodrome Forecast
Issued by NWS

Current Version | Previous Version | Graphics & Text | Print | Product List | Glossary On
Versions: 1 2 3 4 5 6 7 8 9 10 11 12 13 14 15 16 17 18 19 20 21 22 23 24 25 26 27 28 29 30 31 32 33 34 35 36 37 38 39 40
000
FTUS41 KRNK 250713 AAA
TAFLWB
TAF AMD
KLWB 250713Z 2507/2606 27006KT P6SM OVC018
     FM251700 23003KT P6SM BKN035
     FM252100 18003KT P6SM OVC050
     FM260300 09003KT 3SM -RASN BR OVC015=

USA.gov is the U.S. government's official web portal to all federal, state and local government web resources and services.